createdAt,value
2019-03-21T00:02:05.852Z,101504.46
2019-03-21T00:04:31.707Z,101507.58
2019-03-21T00:06:57.534Z,101507.34
2019-03-21T00:09:23.407Z,101510.55
2019-03-21T00:12:00.380Z,101513.99
2019-03-21T00:14:30.221Z,101508.03
2019-03-21T00:16:56.194Z,101510.31
2019-03-21T00:19:22.055Z,101515.17
2019-03-21T00:21:47.870Z,101511.98
2019-03-21T00:24:13.900Z,101512.30
2019-03-21T00:26:39.852Z,101516.80
2019-03-21T00:29:05.707Z,101508.88
2019-03-21T00:31:31.532Z,101516.72
2019-03-21T00:33:59.491Z,101508.72
2019-03-21T00:36:25.343Z,101515.78
2019-03-21T00:38:51.444Z,101514.89
2019-03-21T00:41:17.365Z,101518.83
2019-03-21T00:43:43.290Z,101515.77
2019-03-21T00:46:09.149Z,101518.14
2019-03-21T00:48:35.079Z,101508.41
2019-03-21T00:51:00.996Z,101504.51
2019-03-21T00:53:26.860Z,101499.31
2019-03-21T00:55:56.495Z,101503.75
2019-03-21T00:58:22.660Z,101497.16
2019-03-21T01:00:51.577Z,101494.78
2019-03-21T01:03:17.461Z,101494.25
2019-03-21T01:05:43.395Z,101496.88
2019-03-21T01:08:09.333Z,101499.48
2019-03-21T01:10:35.406Z,101499.19
2019-03-21T01:13:01.347Z,101504.95
2019-03-21T01:15:27.275Z,101498.61
2019-03-21T01:17:53.257Z,101506.91
2019-03-21T01:20:19.100Z,101502.89
2019-03-21T01:22:45.302Z,101519.44
2019-03-21T01:25:42.497Z,101499.11
2019-03-21T01:28:08.453Z,101494.63
2019-03-21T01:30:34.452Z,101491.08
2019-03-21T01:33:00.309Z,101481.02
2019-03-21T01:35:26.144Z,101490.23
2019-03-21T01:37:51.987Z,101484.47
2019-03-21T01:40:27.476Z,101483.45
2019-03-21T01:42:53.390Z,101484.27
2019-03-21T01:45:22.213Z,101483.70
2019-03-21T01:47:49.256Z,101481.98
2019-03-21T01:50:17.709Z,101471.48
2019-03-21T01:52:43.900Z,101476.72
2019-03-21T01:55:11.408Z,101468.48
2019-03-21T01:57:37.652Z,101471.88
2019-03-21T02:00:07.426Z,101465.84
2019-03-21T02:02:33.402Z,101463.27
2019-03-21T02:04:59.409Z,101468.00
2019-03-21T02:07:25.248Z,101478.88
2019-03-21T02:09:51.062Z,101460.48
2019-03-21T02:12:16.953Z,101459.55
2019-03-21T02:14:51.803Z,101465.97
2019-03-21T02:17:10.518Z,101460.69
2019-03-21T02:19:36.543Z,101457.19
2019-03-21T02:22:02.627Z,101455.36
2019-03-21T02:24:28.567Z,101450.52
2019-03-21T02:26:54.461Z,101456.93
2019-03-21T02:29:20.400Z,101454.72
2019-03-21T02:31:46.224Z,101452.17
2019-03-21T02:34:12.278Z,101451.94
2019-03-21T02:36:38.116Z,101451.16
2019-03-21T02:39:05.153Z,101450.40
2019-03-21T02:41:31.192Z,101453.28
2019-03-21T02:43:57.159Z,101453.28
2019-03-21T02:46:23.250Z,101449.28
2019-03-21T02:48:49.344Z,101442.94
2019-03-21T02:51:15.305Z,101443.28
2019-03-21T02:53:41.282Z,101446.81
2019-03-21T02:56:13.917Z,101453.78
2019-03-21T02:58:39.820Z,101453.97
2019-03-21T03:01:05.890Z,101451.81
2019-03-21T03:03:31.855Z,101455.31
2019-03-21T03:05:57.759Z,101444.32
2019-03-21T03:08:23.599Z,101452.16
2019-03-21T03:10:55.702Z,101451.72
2019-03-21T03:13:21.678Z,101451.09
2019-03-21T03:15:47.518Z,101443.16
2019-03-21T03:18:15.359Z,101451.97
2019-03-21T03:20:44.840Z,101447.44
2019-03-21T03:23:10.912Z,101447.44
2019-03-21T03:25:36.877Z,101453.72
2019-03-21T03:28:09.475Z,101453.72
2019-03-21T03:30:35.310Z,101453.11
2019-03-21T03:33:01.277Z,101456.00
2019-03-21T03:35:27.389Z,101456.87
2019-03-21T03:37:53.491Z,101477.78
2019-03-21T03:40:26.022Z,101453.59
2019-03-21T03:42:52.008Z,101464.73
2019-03-21T03:45:20.937Z,101464.73
2019-03-21T03:47:47.066Z,101462.52
2019-03-21T03:50:12.907Z,101472.84
2019-03-21T03:52:40.870Z,101472.84
2019-03-21T03:55:10.560Z,101473.78
2019-03-21T03:57:36.565Z,101474.16
2019-03-21T04:00:06.224Z,101476.07
2019-03-21T04:02:32.313Z,101476.07
2019-03-21T04:04:58.238Z,101469.45
2019-03-21T04:07:24.297Z,101465.64
2019-03-21T04:09:50.338Z,101474.50
2019-03-21T04:12:16.294Z,101474.50
2019-03-21T04:14:42.267Z,101468.38
2019-03-21T04:17:08.085Z,101467.09
2019-03-21T04:19:33.926Z,101472.41
2019-03-21T04:22:02.550Z,101474.66
2019-03-21T04:24:28.546Z,101475.83
2019-03-21T04:26:54.599Z,101476.45
2019-03-21T04:29:20.440Z,101476.45
2019-03-21T04:31:46.401Z,101474.66
2019-03-21T04:34:12.245Z,101474.15
2019-03-21T04:36:38.077Z,101473.78
2019-03-21T04:39:06.331Z,101471.05
2019-03-21T04:41:32.210Z,101469.12
2019-03-21T04:43:58.274Z,101469.12
2019-03-21T04:46:24.139Z,101483.61
2019-03-21T04:48:49.978Z,101483.61
2019-03-21T04:51:15.831Z,101486.09
2019-03-21T04:53:41.677Z,101488.92
2019-03-21T04:56:07.861Z,101492.78
2019-03-21T04:58:33.801Z,101490.04
2019-03-21T05:00:59.856Z,101482.39
2019-03-21T05:03:29.783Z,101487.27
2019-03-21T05:05:55.833Z,101487.27
2019-03-21T05:08:21.896Z,101496.27
2019-03-21T05:10:47.834Z,101498.78
2019-03-21T05:13:13.674Z,101501.00
2019-03-21T05:15:44.570Z,101503.10
2019-03-21T05:18:16.522Z,101504.61
2019-03-21T05:20:42.474Z,101510.60
2019-03-21T05:23:08.364Z,101518.50
2019-03-21T05:25:34.309Z,101519.73
2019-03-21T05:28:00.155Z,101514.21
2019-03-21T05:30:35.731Z,101526.44
2019-03-21T05:33:01.731Z,101529.09
2019-03-21T05:35:27.572Z,101531.44
2019-03-21T05:37:53.402Z,101529.92
2019-03-21T05:40:19.671Z,101535.31
2019-03-21T05:42:55.149Z,101537.42
2019-03-21T05:45:22.724Z,101543.34
2019-03-21T05:47:48.580Z,101552.90
2019-03-21T05:50:16.021Z,101554.17
2019-03-21T05:52:42.080Z,101559.27
2019-03-21T05:55:09.712Z,101557.84
2019-03-21T05:57:35.691Z,101552.92
2019-03-21T06:00:04.252Z,101552.92
2019-03-21T06:02:30.066Z,101562.64
2019-03-21T06:04:55.896Z,101554.30
2019-03-21T06:07:25.621Z,101563.62
2019-03-21T06:09:51.481Z,101558.47
2019-03-21T06:12:17.333Z,101557.38
2019-03-21T06:14:52.834Z,101567.10
2019-03-21T06:17:18.687Z,101574.72
2019-03-21T06:19:48.366Z,101574.72
2019-03-21T06:22:27.039Z,101573.15
2019-03-21T06:25:15.943Z,101573.15
2019-03-21T06:27:42.000Z,101569.09
2019-03-21T06:30:08.558Z,101569.09
2019-03-21T06:32:34.470Z,101584.02
2019-03-21T06:35:00.394Z,101584.02
2019-03-21T06:37:28.586Z,101580.15
2019-03-21T06:39:54.481Z,101596.19
2019-03-21T06:42:20.331Z,101598.97
2019-03-21T06:44:46.154Z,101593.14
2019-03-21T06:47:12.112Z,101596.75
2019-03-21T06:49:38.029Z,101592.31
2019-03-21T06:52:04.177Z,101591.78
2019-03-21T06:54:30.027Z,101589.56
2019-03-21T06:56:55.884Z,101595.94
2019-03-21T06:59:21.781Z,101590.90
2019-03-21T07:01:47.811Z,101594.87
2019-03-21T07:04:13.663Z,101596.88
2019-03-21T07:06:39.710Z,101595.25
2019-03-21T07:09:06.660Z,101587.89
2019-03-21T07:11:32.496Z,101595.80
2019-03-21T07:13:58.469Z,101591.54
2019-03-21T07:16:24.309Z,101599.92
2019-03-21T07:18:50.242Z,101594.38
2019-03-21T07:21:16.181Z,101594.87
2019-03-21T07:23:45.250Z,101600.29
2019-03-21T07:26:11.195Z,101595.65
2019-03-21T07:28:38.647Z,101595.27
2019-03-21T07:31:04.755Z,101607.68
2019-03-21T07:33:30.657Z,101608.88
2019-03-21T07:35:56.582Z,101607.18
2019-03-21T07:38:22.452Z,101597.28
2019-03-21T07:40:48.294Z,101597.38
2019-03-21T07:43:14.155Z,101595.68
2019-03-21T07:45:40.052Z,101589.91
2019-03-21T07:48:05.981Z,101587.77
2019-03-21T07:50:31.935Z,101587.73
2019-03-21T07:52:57.798Z,101587.81
2019-03-21T07:55:23.759Z,101592.31
2019-03-21T07:57:49.735Z,101600.35
2019-03-21T08:00:17.093Z,101602.16
2019-03-21T08:02:43.147Z,101593.78
2019-03-21T08:05:10.228Z,101590.36
2019-03-21T08:07:36.082Z,101592.56
2019-03-21T08:10:04.339Z,101594.38
2019-03-21T08:12:30.308Z,101599.22
2019-03-21T08:14:56.261Z,101591.32
2019-03-21T08:17:22.070Z,101596.16
2019-03-21T08:19:47.944Z,101584.70
2019-03-21T08:22:13.805Z,101592.19
2019-03-21T08:24:39.803Z,101597.87
2019-03-21T08:27:05.784Z,101596.14
2019-03-21T08:29:32.103Z,101593.86
2019-03-21T08:31:57.944Z,101595.63
2019-03-21T08:34:23.779Z,101596.41
2019-03-21T08:36:49.708Z,101598.56
2019-03-21T08:39:15.707Z,101600.79
2019-03-21T08:41:41.553Z,101596.33
2019-03-21T08:44:07.589Z,101598.98
2019-03-21T08:46:33.430Z,101595.41
2019-03-21T08:48:59.358Z,101607.78
2019-03-21T08:51:25.408Z,101601.52
2019-03-21T08:53:51.588Z,101592.27
2019-03-21T08:56:17.435Z,101593.11
2019-03-21T08:58:43.654Z,101593.36
2019-03-21T09:01:09.702Z,101589.91
2019-03-21T09:03:35.640Z,101587.59
2019-03-21T09:06:01.575Z,101584.93
2019-03-21T09:08:27.475Z,101587.39
2019-03-21T09:10:53.325Z,101586.46
2019-03-21T09:13:19.150Z,101581.23
2019-03-21T09:15:45.187Z,101579.89
2019-03-21T09:18:11.051Z,101588.57
2019-03-21T09:20:37.087Z,101584.03
2019-03-21T09:23:03.073Z,101575.02
2019-03-21T09:25:28.967Z,101577.19
2019-03-21T09:28:02.554Z,101578.52
2019-03-21T09:30:22.842Z,101570.12
2019-03-21T09:32:48.686Z,101570.23
2019-03-21T09:35:14.778Z,101570.68
2019-03-21T09:37:40.615Z,101562.17
2019-03-21T09:40:09.390Z,101561.48
2019-03-21T09:42:35.233Z,101562.81
2019-03-21T09:45:01.270Z,101560.74
2019-03-21T09:47:27.120Z,101563.88
2019-03-21T09:49:53.059Z,101562.91
2019-03-21T09:52:18.982Z,101560.72
2019-03-21T09:54:44.930Z,101556.58
2019-03-21T09:57:10.873Z,101559.97
2019-03-21T09:59:36.715Z,101557.79
2019-03-21T10:02:02.837Z,101561.48
2019-03-21T10:04:28.709Z,101554.84
2019-03-21T10:06:54.653Z,101550.27
2019-03-21T10:09:20.611Z,101546.80
2019-03-21T10:11:46.438Z,101553.27
2019-03-21T10:14:12.282Z,101546.73
2019-03-21T10:16:38.369Z,101547.69
2019-03-21T10:19:04.303Z,101545.46
2019-03-21T10:21:30.154Z,101546.11
2019-03-21T10:23:59.056Z,101531.69
2019-03-21T10:26:28.525Z,101541.23
2019-03-21T10:28:54.359Z,101537.00
2019-03-21T10:31:20.250Z,101537.78
2019-03-21T10:33:46.085Z,101533.05
2019-03-21T10:36:12.129Z,101528.89
2019-03-21T10:38:38.309Z,101524.79
2019-03-21T10:41:04.368Z,101521.61
2019-03-21T10:43:30.230Z,101518.63
2019-03-21T10:45:56.176Z,101517.02
2019-03-21T10:48:23.565Z,101515.00
2019-03-21T10:50:49.573Z,101514.81
2019-03-21T10:53:15.463Z,101518.28
2019-03-21T10:55:41.322Z,101513.46
2019-03-21T10:58:07.834Z,101511.11
2019-03-21T11:00:33.926Z,101508.39
2019-03-21T11:03:00.000Z,101508.97
2019-03-21T11:05:25.955Z,101518.81
2019-03-21T11:07:52.033Z,101513.78
2019-03-21T11:10:18.068Z,101501.84
2019-03-21T11:12:43.920Z,101506.43
2019-03-21T11:15:10.058Z,101507.87
2019-03-21T11:17:36.004Z,101507.62
2019-03-21T11:20:03.896Z,101508.26
2019-03-21T11:22:29.806Z,101499.64
2019-03-21T11:24:55.631Z,101500.97
2019-03-21T11:27:21.735Z,101490.82
2019-03-21T11:29:47.566Z,101490.81
2019-03-21T11:32:13.655Z,101483.48
2019-03-21T11:34:39.628Z,101479.82
2019-03-21T11:37:05.443Z,101477.41
2019-03-21T11:39:31.318Z,101475.16
2019-03-21T11:41:57.172Z,101461.41
2019-03-21T11:44:23.028Z,101461.88
2019-03-21T11:46:48.897Z,101462.10
2019-03-21T11:49:14.745Z,101452.27
2019-03-21T11:51:40.688Z,101444.58
2019-03-21T11:54:06.645Z,101442.81
2019-03-21T11:56:32.493Z,101437.35
2019-03-21T11:58:58.348Z,101429.02
2019-03-21T12:01:24.278Z,101422.72
2019-03-21T12:03:50.119Z,101425.48
2019-03-21T12:06:16.001Z,101425.04
2019-03-21T12:08:41.937Z,101426.42
2019-03-21T12:11:07.878Z,101426.01
2019-03-21T12:13:33.770Z,101413.86
2019-03-21T12:15:59.598Z,101419.03
2019-03-21T12:18:25.493Z,101410.23
2019-03-21T12:20:51.340Z,101405.52
2019-03-21T12:23:17.283Z,101406.01
2019-03-21T12:25:43.098Z,101401.59
2019-03-21T12:28:09.036Z,101401.52
2019-03-21T12:30:36.444Z,101387.82
2019-03-21T12:33:02.989Z,101391.63
2019-03-21T12:35:29.066Z,101386.92
2019-03-21T12:37:54.934Z,101383.66
2019-03-21T12:40:20.880Z,101381.27
2019-03-21T12:42:46.825Z,101382.76
2019-03-21T12:45:12.972Z,101374.75
2019-03-21T12:47:38.908Z,101374.75
2019-03-21T12:50:06.846Z,101371.20
2019-03-21T12:55:00.394Z,101368.13
2019-03-21T12:56:21.938Z,101361.78
2019-03-21T12:57:26.357Z,101363.67
2019-03-21T12:59:52.418Z,101359.87
2019-03-21T13:02:18.491Z,101357.30
2019-03-21T13:04:44.444Z,101350.23
2019-03-21T13:07:10.289Z,101345.35
2019-03-21T13:09:38.474Z,101351.89
2019-03-21T13:12:04.290Z,101355.92
2019-03-21T13:14:30.111Z,101346.08
2019-03-21T13:16:56.018Z,101338.49
2019-03-21T13:19:21.877Z,101336.31
2019-03-21T13:21:47.735Z,101345.09
2019-03-21T13:24:16.417Z,101343.16
2019-03-21T13:26:41.470Z,101337.80
2019-03-21T13:29:07.359Z,101353.31
2019-03-21T13:31:33.182Z,101331.84
2019-03-21T13:34:02.947Z,101342.17
2019-03-21T13:36:28.882Z,101340.70
2019-03-21T13:38:54.835Z,101349.81
2019-03-21T13:41:20.687Z,101343.16
2019-03-21T13:43:46.571Z,101349.78
2019-03-21T13:46:12.499Z,101343.08
2019-03-21T13:48:38.499Z,101342.69
2019-03-21T13:51:04.322Z,101339.22
2019-03-21T13:53:30.231Z,101332.77
2019-03-21T13:55:56.117Z,101346.40
2019-03-21T13:58:21.999Z,101344.06
2019-03-21T14:00:47.849Z,101334.28
2019-03-21T14:03:24.647Z,101336.97
2019-03-21T14:05:41.553Z,101338.22
2019-03-21T14:08:07.413Z,101318.77
2019-03-21T14:10:33.299Z,101330.88
2019-03-21T14:12:59.247Z,101326.27
2019-03-21T14:15:25.181Z,101288.09
2019-03-21T14:17:51.084Z,101307.33
2019-03-21T14:20:17.320Z,101309.80
2019-03-21T14:22:43.193Z,101313.02
2019-03-21T14:25:09.361Z,101295.25
2019-03-21T14:27:35.389Z,101298.09
2019-03-21T14:30:03.299Z,101288.78
2019-03-21T14:32:29.142Z,101274.71
2019-03-21T14:34:55.136Z,101259.87
2019-03-21T14:37:21.093Z,101261.47
2019-03-21T14:39:47.114Z,101258.70
2019-03-21T14:42:13.150Z,101259.41
2019-03-21T14:44:39.017Z,101255.80
2019-03-21T14:47:04.977Z,101253.47
2019-03-21T14:49:32.763Z,101241.84
2019-03-21T14:51:58.618Z,101242.80
2019-03-21T14:54:26.031Z,101237.91
2019-03-21T14:56:52.053Z,101232.86
2019-03-21T14:59:17.905Z,101243.60
2019-03-21T15:01:43.906Z,101232.85
2019-03-21T15:04:09.786Z,101222.17
2019-03-21T15:06:35.615Z,101228.12
2019-03-21T15:09:01.615Z,101226.09
2019-03-21T15:11:27.548Z,101223.13
2019-03-21T15:13:53.362Z,101220.18
2019-03-21T15:16:19.340Z,101217.84
2019-03-21T15:18:45.237Z,101214.66
2019-03-21T15:21:11.159Z,101212.81
2019-03-21T15:23:40.830Z,101210.42
2019-03-21T15:26:04.772Z,101207.45
2019-03-21T15:28:30.718Z,101204.88
2019-03-21T15:30:56.724Z,101197.37
2019-03-21T15:33:22.672Z,101198.67
2019-03-21T15:35:48.625Z,101192.77
2019-03-21T15:38:14.589Z,101193.20
2019-03-21T15:40:40.415Z,101192.51
2019-03-21T15:43:06.403Z,101196.37
2019-03-21T15:45:32.447Z,101199.95
2019-03-21T15:47:58.543Z,101193.13
2019-03-21T15:50:29.875Z,101192.44
2019-03-21T15:52:55.937Z,101193.13
2019-03-21T15:55:21.789Z,101183.09
2019-03-21T15:57:47.655Z,101183.33
2019-03-21T16:00:17.455Z,101186.89
2019-03-21T16:02:43.299Z,101184.92
2019-03-21T16:05:09.340Z,101188.56
2019-03-21T16:07:35.424Z,101186.13
2019-03-21T16:10:01.610Z,101183.94
2019-03-21T16:12:28.291Z,101178.91
2019-03-21T16:14:54.120Z,101178.33
2019-03-21T16:17:19.940Z,101185.70
2019-03-21T16:19:45.887Z,101186.34
2019-03-21T16:22:11.742Z,101185.98
2019-03-21T16:24:37.622Z,101186.63
2019-03-21T16:32:10.749Z,101178.46
2019-03-21T16:34:36.692Z,101176.44
2019-03-21T16:37:06.151Z,101180.56
2019-03-21T16:39:32.111Z,101174.79
2019-03-21T16:41:58.041Z,101184.80
2019-03-21T16:44:23.972Z,101177.89
2019-03-21T16:46:49.828Z,101179.77
2019-03-21T16:49:15.687Z,101190.06
2019-03-21T16:51:41.547Z,101180.05
2019-03-21T16:54:16.557Z,101193.66
2019-03-21T16:56:35.220Z,101192.49
2019-03-21T16:59:01.057Z,101189.52
2019-03-21T17:01:26.919Z,101192.55
2019-03-21T17:03:52.807Z,101196.02
2019-03-21T17:06:18.762Z,101188.00
2019-03-21T17:08:44.719Z,101194.48
2019-03-21T17:11:10.723Z,101198.70
2019-03-21T17:13:36.674Z,101193.34
2019-03-21T17:16:05.526Z,101196.00
2019-03-21T17:18:30.498Z,101200.50
2019-03-21T17:20:56.521Z,101197.30
2019-03-21T17:23:22.378Z,101199.27
2019-03-21T17:25:48.223Z,101202.14
2019-03-21T17:28:14.162Z,101207.17
2019-03-21T17:30:40.049Z,101201.31
2019-03-21T17:33:06.079Z,101202.74
2019-03-21T17:35:32.142Z,101212.53
2019-03-21T17:37:58.046Z,101206.59
2019-03-21T17:40:23.925Z,101216.72
2019-03-21T17:42:49.916Z,101210.92
2019-03-21T17:45:16.869Z,101205.89
2019-03-21T17:47:42.949Z,101208.22
2019-03-21T17:50:10.993Z,101210.57
2019-03-21T17:52:36.845Z,101220.09
2019-03-21T17:55:04.976Z,101219.60
2019-03-21T17:57:34.765Z,101227.70
2019-03-21T17:59:58.572Z,101223.95
2019-03-21T18:02:24.948Z,101232.57
2019-03-21T18:04:50.882Z,101231.01
2019-03-21T18:07:16.914Z,101233.75
2019-03-21T18:09:43.023Z,101236.59
2019-03-21T18:12:08.844Z,101239.45
2019-03-21T18:14:34.789Z,101238.31
2019-03-21T18:17:01.338Z,101243.77
2019-03-21T18:19:27.316Z,101253.12
2019-03-21T18:21:53.243Z,101249.32
2019-03-21T18:24:19.266Z,101249.12
2019-03-21T18:26:45.055Z,101260.39
2019-03-21T18:29:11.001Z,101259.30
2019-03-21T18:31:36.872Z,101260.30
2019-03-21T18:34:02.911Z,101264.41
2019-03-21T18:36:29.218Z,101264.56
2019-03-21T18:38:59.516Z,101266.84
2019-03-21T18:41:23.136Z,101264.52
2019-03-21T18:43:49.156Z,101266.80
2019-03-21T18:46:15.020Z,101268.30
2019-03-21T18:48:40.951Z,101265.18
2019-03-21T18:51:06.929Z,101279.95
2019-03-21T18:53:32.846Z,101277.94
2019-03-21T18:55:58.785Z,101282.89
2019-03-21T18:58:24.674Z,101285.77
2019-03-21T19:00:50.590Z,101284.08
2019-03-21T19:03:16.448Z,101290.41
2019-03-21T19:05:42.293Z,101280.17
2019-03-21T19:08:08.136Z,101287.28
2019-03-21T19:10:34.479Z,101287.48
2019-03-21T19:13:00.304Z,101292.80
2019-03-21T19:15:26.194Z,101299.50
2019-03-21T19:17:52.024Z,101296.16
2019-03-21T19:20:18.218Z,101299.74
2019-03-21T19:22:44.391Z,101302.00
2019-03-21T19:25:18.327Z,101302.44
2019-03-21T19:27:38.754Z,101304.71
2019-03-21T19:30:08.202Z,101309.53
2019-03-21T19:32:34.098Z,101306.52
2019-03-21T19:35:00.038Z,101306.50
2019-03-21T19:37:25.887Z,101309.49
2019-03-21T19:39:55.539Z,101310.39
2019-03-21T19:42:21.654Z,101312.55
2019-03-21T19:44:47.626Z,101317.08
2019-03-21T19:47:23.257Z,101314.86
2019-03-21T19:49:41.174Z,101319.73
2019-03-21T19:52:07.252Z,101326.30
2019-03-21T19:54:33.197Z,101303.95
2019-03-21T19:56:59.159Z,101319.77
2019-03-21T19:59:25.095Z,101323.32
2019-03-21T20:01:51.809Z,101332.25
2019-03-21T20:04:17.665Z,101331.86
2019-03-21T20:06:43.595Z,101334.03
2019-03-21T20:09:09.505Z,101338.93
2019-03-21T20:11:35.440Z,101335.84
2019-03-21T20:14:03.861Z,101331.80
2019-03-21T20:16:29.197Z,101334.05
2019-03-21T20:18:55.152Z,101335.38
2019-03-21T20:21:21.042Z,101337.68
2019-03-21T20:23:46.879Z,101333.36
2019-03-21T20:26:12.753Z,101340.85
2019-03-21T20:28:38.740Z,101342.26
2019-03-21T20:31:04.576Z,101344.50
2019-03-21T20:33:30.528Z,101344.91
2019-03-21T20:35:56.420Z,101341.45
2019-03-21T20:38:22.244Z,101345.83
2019-03-21T20:40:48.166Z,101352.44
2019-03-21T20:43:14.058Z,101346.32
2019-03-21T20:45:39.888Z,101350.70
2019-03-21T20:48:05.849Z,101358.70
2019-03-21T20:50:31.714Z,101355.61
2019-03-21T20:52:57.537Z,101367.55
2019-03-21T20:55:23.601Z,101363.58
2019-03-21T20:57:49.535Z,101365.31
2019-03-21T21:00:22.567Z,101363.58
2019-03-21T21:02:48.882Z,101362.29
2019-03-21T21:05:15.009Z,101367.12
2019-03-21T21:07:40.977Z,101368.89
2019-03-21T21:10:08.624Z,101365.41
2019-03-21T21:12:36.407Z,101363.22
2019-03-21T21:15:04.980Z,101372.44
2019-03-21T21:17:30.892Z,101362.77
2019-03-21T21:19:56.876Z,101370.69
2019-03-21T21:22:22.752Z,101367.62
2019-03-21T21:24:48.665Z,101371.61
2019-03-21T21:27:14.552Z,101377.34
2019-03-21T21:29:42.959Z,101375.15
2019-03-21T21:32:08.326Z,101368.55
2019-03-21T21:34:34.352Z,101372.05
2019-03-21T21:37:00.282Z,101371.63
2019-03-21T21:39:26.300Z,101372.09
2019-03-21T21:41:52.198Z,101370.32
2019-03-21T21:44:18.025Z,101375.63
2019-03-21T21:46:43.872Z,101376.49
2019-03-21T21:49:09.792Z,101376.08
2019-03-21T21:51:35.657Z,101383.11
2019-03-21T21:54:01.504Z,101380.02
2019-03-21T21:56:27.339Z,101386.17
2019-03-21T21:58:53.221Z,101371.67
2019-03-21T22:01:19.319Z,101374.75
2019-03-21T22:03:45.194Z,101373.00
2019-03-21T22:06:11.047Z,101368.13
2019-03-21T22:08:36.974Z,101376.48
2019-03-21T22:11:03.042Z,101383.54
2019-03-21T22:13:28.984Z,101380.02
2019-03-21T22:15:54.802Z,101377.84
2019-03-21T22:18:20.643Z,101376.47
2019-03-21T22:20:46.535Z,101376.47
2019-03-21T22:23:12.348Z,101376.91
2019-03-21T22:25:38.296Z,101379.98
2019-03-21T22:28:04.343Z,101379.98
2019-03-21T22:30:30.180Z,101377.80
2019-03-21T22:32:56.010Z,101378.66
2019-03-21T22:35:21.958Z,101371.63
2019-03-21T22:37:48.069Z,101375.14
2019-03-21T22:40:15.310Z,101381.31
2019-03-21T22:42:45.148Z,101377.34
2019-03-21T22:45:12.819Z,101382.16
2019-03-21T22:47:39.050Z,101382.15
2019-03-21T22:50:14.745Z,101375.57
2019-03-21T22:52:40.321Z,101380.84
2019-03-21T22:55:06.753Z,101376.89
2019-03-21T22:57:32.643Z,101386.12
2019-03-21T22:59:58.480Z,101381.30
2019-03-21T23:02:24.423Z,101383.91
2019-03-21T23:04:50.359Z,101378.63
2019-03-21T23:07:16.611Z,101382.59
2019-03-21T23:09:42.451Z,101381.73
2019-03-21T23:12:08.296Z,101376.02
2019-03-21T23:14:34.127Z,101377.76
2019-03-21T23:16:59.946Z,101382.16
2019-03-21T23:19:25.971Z,101379.52
2019-03-21T23:21:51.924Z,101376.45
2019-03-21T23:24:17.888Z,101376.88
2019-03-21T23:26:52.520Z,101374.66
2019-03-21T23:29:11.576Z,101383.01
2019-03-21T23:31:37.502Z,101383.00
2019-03-21T23:34:03.352Z,101379.94
2019-03-21T23:36:29.189Z,101376.39
2019-03-21T23:38:55.164Z,101369.81
2019-03-21T23:41:21.007Z,101370.66
2019-03-21T23:43:46.891Z,101375.47
2019-03-21T23:46:12.956Z,101373.22
2019-03-21T23:48:38.786Z,101366.13
2019-03-21T23:51:04.717Z,101372.28
2019-03-21T23:53:30.603Z,101373.62
2019-03-21T23:55:56.514Z,101373.14
2019-03-21T23:58:22.462Z,101372.28
